Time;durP1;ratioP1;P1;durP2;ratioP2;P2;SDS_P1;SDS_P2;PMS_P1;PMS_P2;Temp;Humidity;BMP_temperature;BMP_pressure;BME280_temperature;BME280_humidity;BME280_pressure;Samples;Min_cycle;Max_cycle;Signal;HPM_P1;HPM_P2
2022/07/20 00:01:48;;;;;;;8.80;7.90;;;28.70;1.00;;;;;;5091455;28;20032;-78
2022/07/20 00:04:13;;;;;;;8.48;7.70;;;28.70;1.00;;;;;;5091522;28;20028;-78
2022/07/20 00:06:39;;;;;;;7.90;7.30;;;28.70;1.00;;;;;;5091454;28;20028;-79
2022/07/20 00:11:49;;;;;;;8.23;7.63;;;28.70;1.00;;;;;;5090132;28;20081;-79
2022/07/20 00:14:15;;;;;;;8.50;7.70;;;28.80;1.00;;;;;;5091328;28;20032;-78
2022/07/20 00:16:41;;;;;;;8.52;7.93;;;28.80;1.00;;;;;;5091185;28;20400;-78
2022/07/20 00:19:07;;;;;;;8.85;7.93;;;28.70;1.00;;;;;;5090296;28;20033;-78
2022/07/20 00:21:32;;;;;;;8.63;7.70;;;28.70;1.00;;;;;;5092249;28;20024;-78
2022/07/20 00:23:58;;;;;;;7.90;7.20;;;28.70;1.00;;;;;;5092127;28;20476;-78
2022/07/20 00:26:24;;;;;;;8.48;7.78;;;28.50;1.00;;;;;;5091113;28;20031;-79
2022/07/20 00:28:50;;;;;;;9.35;7.97;;;28.50;1.00;;;;;;5090844;28;20070;-79
2022/07/20 00:31:17;;;;;;;8.55;7.85;;;28.40;1.00;;;;;;5091004;28;20089;-78
2022/07/20 00:33:46;;;;;;;8.45;7.68;;;28.20;1.00;;;;;;5091120;28;20107;-78
2022/07/20 00:36:13;;;;;;;8.90;8.07;;;28.20;1.00;;;;;;5092937;28;20016;-79
2022/07/20 00:38:39;;;;;;;8.45;7.82;;;28.20;1.00;;;;;;5090955;28;20039;-78
2022/07/20 00:41:05;;;;;;;9.15;8.23;;;28.30;1.00;;;;;;5090976;28;20028;-79
2022/07/20 00:43:58;;;;;;;8.88;8.00;;;28.30;1.00;;;;;;5090837;28;20077;-79
2022/07/20 00:46:24;;;;;;;9.48;8.65;;;28.20;1.00;;;;;;5091110;28;20027;-78
2022/07/20 00:48:50;;;;;;;8.98;8.27;;;28.20;1.00;;;;;;5090236;28;20435;-78
2022/07/20 00:51:16;;;;;;;9.38;8.48;;;28.20;1.00;;;;;;5092005;28;20046;-78
2022/07/20 00:53:42;;;;;;;9.00;8.20;;;28.20;1.00;;;;;;5072823;28;20484;-78
2022/07/20 00:56:08;;;;;;;9.52;8.65;;;28.20;1.00;;;;;;5090373;28;20047;-78
2022/07/20 00:58:34;;;;;;;9.07;8.20;;;28.20;1.00;;;;;;5089459;28;20464;-79
2022/07/20 01:01:00;;;;;;;8.65;7.95;;;28.10;1.00;;;;;;5090787;28;20020;-79
2022/07/20 01:03:25;;;;;;;8.98;8.18;;;28.00;1.00;;;;;;5092346;28;20028;-78
2022/07/20 01:05:51;;;;;;;8.45;7.63;;;27.90;1.00;;;;;;5089566;28;20103;-78
2022/07/20 01:08:17;;;;;;;8.82;8.15;;;28.00;1.00;;;;;;5090599;28;20059;-78
2022/07/20 01:10:43;;;;;;;9.10;8.23;;;27.90;1.00;;;;;;5090543;28;20028;-78
2022/07/20 01:13:09;;;;;;;8.85;8.02;;;27.80;1.00;;;;;;5090627;28;20051;-79
2022/07/20 01:15:34;;;;;;;9.10;8.20;;;27.80;1.00;;;;;;5091594;28;20388;-78
2022/07/20 01:18:00;;;;;;;9.48;8.57;;;27.80;1.00;;;;;;5091433;28;20028;-78
2022/07/20 01:20:26;;;;;;;11.13;9.15;;;27.80;1.00;;;;;;5090487;28;20082;-78
2022/07/20 01:22:52;;;;;;;10.40;8.60;;;27.70;1.00;;;;;;5090182;28;20019;-78
2022/07/20 01:25:18;;;;;;;9.00;8.20;;;27.50;1.00;;;;;;5090571;28;20469;-79
2022/07/20 01:27:43;;;;;;;9.05;8.25;;;27.40;1.00;;;;;;5090592;28;20024;-78
2022/07/20 01:30:10;;;;;;;8.90;8.00;;;27.50;1.00;;;;;;5092551;28;20032;-79
2022/07/20 01:32:35;;;;;;;8.77;8.00;;;27.40;1.00;;;;;;5089821;28;20035;-78
2022/07/20 01:35:01;;;;;;;8.90;8.23;;;27.40;1.00;;;;;;5090345;28;20024;-78
2022/07/20 01:37:28;;;;;;;8.90;8.10;;;27.40;1.00;;;;;;5088985;28;20032;-78
2022/07/20 01:39:53;;;;;;;9.30;8.50;;;27.40;1.00;;;;;;5090482;28;20032;-78
2022/07/20 01:42:19;;;;;;;9.43;8.60;;;27.30;1.00;;;;;;5092366;28;20111;-78
2022/07/20 01:44:45;;;;;;;9.95;8.98;;;27.10;1.00;;;;;;5090000;28;20040;-78
2022/07/20 01:47:10;;;;;;;9.93;9.05;;;27.10;1.00;;;;;;5089952;28;20182;-78
2022/07/20 01:49:36;;;;;;;9.70;8.70;;;27.10;1.00;;;;;;5090003;28;20031;-78
2022/07/20 01:52:02;;;;;;;9.68;8.88;;;27.10;1.00;;;;;;5090288;28;20035;-78
2022/07/20 01:54:27;;;;;;;9.48;8.65;;;27.10;1.00;;;;;;5091816;28;20020;-78
2022/07/20 01:56:53;;;;;;;9.32;8.43;;;26.90;1.00;;;;;;5090622;28;20059;-78
2022/07/20 01:59:18;;;;;;;10.52;8.60;;;26.90;1.00;;;;;;5090057;28;20257;-78
2022/07/20 02:01:44;;;;;;;10.20;9.23;;;26.70;1.00;;;;;;5089479;28;20502;-78
2022/07/20 02:04:10;;;;;;;9.90;8.90;;;26.70;1.00;;;;;;5090029;28;20039;-78
2022/07/20 02:06:35;;;;;;;9.65;8.75;;;26.70;1.00;;;;;;5072974;28;20024;-78
2022/07/20 02:09:02;;;;;;;10.32;9.35;;;26.80;1.00;;;;;;5091402;28;20036;-79
2022/07/20 02:11:28;;;;;;;9.73;8.93;;;26.80;1.00;;;;;;5093670;28;20539;-78
2022/07/20 02:13:53;;;;;;;9.85;8.88;;;26.70;1.00;;;;;;5093996;28;20050;-78
2022/07/20 02:16:19;;;;;;;9.77;8.88;;;26.60;1.00;;;;;;5092401;28;20103;-78
2022/07/20 02:18:50;;;;;;;9.30;8.50;;;26.50;1.00;;;;;;5093814;28;20111;-78
2022/07/20 02:21:19;;;;;;;9.68;8.65;;;26.40;1.00;;;;;;5095695;28;20020;-78
2022/07/20 02:23:45;;;;;;;10.10;9.23;;;26.50;1.00;;;;;;5093620;28;20093;-78
2022/07/20 02:26:11;;;;;;;10.43;9.60;;;26.40;1.00;;;;;;5093391;28;20027;-78
2022/07/20 02:28:38;;;;;;;10.07;9.10;;;26.40;1.00;;;;;;5093506;28;20078;-78
2022/07/20 02:31:04;;;;;;;10.43;9.52;;;26.40;1.00;;;;;;5092277;28;20448;-78
2022/07/20 02:33:30;;;;;;;10.45;9.55;;;26.30;1.00;;;;;;5094774;28;20048;-79
2022/07/20 02:35:56;;;;;;;10.05;9.20;;;26.30;1.00;;;;;;5094440;28;20031;-78
2022/07/20 02:38:23;;;;;;;10.05;9.25;;;26.30;1.00;;;;;;5092031;28;20450;-78
2022/07/20 02:40:50;;;;;;;10.18;9.38;;;26.30;1.00;;;;;;5093595;28;20020;-77
2022/07/20 02:43:15;;;;;;;9.60;8.68;;;26.20;1.00;;;;;;5093337;28;20024;-78
2022/07/20 02:45:41;;;;;;;10.30;9.43;;;26.10;1.00;;;;;;5093805;28;20097;-78
2022/07/20 02:48:06;;;;;;;10.38;9.23;;;26.20;1.00;;;;;;5093078;28;20458;-78
2022/07/20 02:50:36;;;;;;;10.15;9.25;;;26.10;1.00;;;;;;5093007;28;20028;-78
2022/07/20 02:53:03;;;;;;;10.00;9.10;;;26.00;1.00;;;;;;5091457;28;20046;-78
2022/07/20 02:55:29;;;;;;;10.13;9.32;;;26.10;1.00;;;;;;5092921;28;20032;-78
2022/07/20 02:57:55;;;;;;;10.68;9.80;;;26.10;1.00;;;;;;5077431;28;20085;-78
2022/07/20 03:00:21;;;;;;;10.77;9.88;;;26.00;1.00;;;;;;5094734;28;20028;-78
2022/07/20 03:02:47;;;;;;;10.70;9.80;;;26.10;1.00;;;;;;5092722;28;20028;-78
2022/07/20 03:05:13;;;;;;;10.45;9.55;;;26.00;1.00;;;;;;5091372;28;20032;-78
2022/07/20 03:07:39;;;;;;;10.50;9.60;;;26.00;1.00;;;;;;5092730;28;20043;-78
2022/07/20 03:10:05;;;;;;;11.00;9.88;;;26.00;1.00;;;;;;5092791;28;20024;-79
2022/07/20 03:12:31;;;;;;;10.15;9.18;;;26.10;1.00;;;;;;5094007;28;20064;-78
2022/07/20 03:14:57;;;;;;;10.70;9.70;;;26.10;1.00;;;;;;5093043;28;20044;-78
2022/07/20 03:17:23;;;;;;;10.93;9.82;;;26.20;1.00;;;;;;5091512;28;20024;-78
2022/07/20 03:19:49;;;;;;;10.43;9.52;;;26.10;1.00;;;;;;5092318;28;20039;-78
2022/07/20 03:22:14;;;;;;;11.50;10.50;;;26.00;1.00;;;;;;5092682;28;20012;-78
2022/07/20 03:24:40;;;;;;;10.95;9.88;;;26.00;1.00;;;;;;5093445;28;20031;-76
2022/07/20 03:27:06;;;;;;;11.15;10.20;;;26.00;1.00;;;;;;5092681;28;20195;-78
2022/07/20 03:29:32;;;;;;;10.95;9.95;;;25.90;1.00;;;;;;5092072;28;20052;-78
2022/07/20 03:31:57;;;;;;;10.75;9.88;;;25.80;1.00;;;;;;5092271;28;20089;-78
2022/07/20 03:34:23;;;;;;;11.25;10.18;;;25.60;1.00;;;;;;5091092;28;20435;-78
2022/07/20 03:36:49;;;;;;;10.98;10.05;;;25.60;1.00;;;;;;5092389;28;20027;-78
2022/07/20 03:39:15;;;;;;;11.40;10.50;;;25.60;1.00;;;;;;5094419;28;20548;-78
2022/07/20 03:41:40;;;;;;;11.35;10.35;;;25.50;1.00;;;;;;5092246;28;20429;-78
2022/07/20 03:44:06;;;;;;;11.25;9.95;;;25.40;1.00;;;;;;5091812;28;20079;-78
2022/07/20 03:46:32;;;;;;;11.63;10.40;;;25.30;1.00;;;;;;5092231;28;20160;-78
2022/07/20 03:48:58;;;;;;;11.20;10.15;;;25.30;1.00;;;;;;5091999;28;20036;-79
2022/07/20 03:51:23;;;;;;;11.77;10.48;;;25.30;1.00;;;;;;5094239;28;20020;-78
2022/07/20 03:53:50;;;;;;;11.32;10.45;;;25.40;1.00;;;;;;5073761;28;20122;-78
2022/07/20 03:56:15;;;;;;;11.65;10.45;;;25.30;1.00;;;;;;5091991;28;20069;-78
2022/07/20 03:58:41;;;;;;;11.00;10.00;;;25.50;1.00;;;;;;5091837;28;20061;-78
2022/07/20 04:01:07;;;;;;;12.23;10.45;;;25.60;1.00;;;;;;5090443;28;20481;-78
2022/07/20 04:03:32;;;;;;;12.07;10.70;;;25.50;1.00;;;;;;5092877;28;20158;-77
2022/07/20 04:05:58;;;;;;;11.48;10.30;;;25.50;1.00;;;;;;5093040;28;20035;-78
2022/07/20 04:08:24;;;;;;;11.55;10.45;;;25.50;1.00;;;;;;5091659;28;20024;-78
2022/07/20 04:10:49;;;;;;;11.88;10.77;;;25.60;1.00;;;;;;5091675;28;20024;-78
2022/07/20 04:13:15;;;;;;;11.60;10.50;;;25.60;1.00;;;;;;5090155;28;20032;-78
2022/07/20 04:15:40;;;;;;;12.15;10.98;;;25.60;1.00;;;;;;5091489;28;20059;-78
2022/07/20 04:18:06;;;;;;;11.60;10.40;;;25.60;1.00;;;;;;5093945;28;20028;-78
2022/07/20 04:20:32;;;;;;;11.13;10.13;;;25.60;1.00;;;;;;5091436;28;20024;-78
2022/07/20 04:22:57;;;;;;;11.02;10.02;;;25.60;1.00;;;;;;5091452;28;20051;-78
2022/07/20 04:25:23;;;;;;;10.95;10.05;;;25.70;1.00;;;;;;5091533;28;20513;-78
2022/07/20 04:27:50;;;;;;;11.77;10.65;;;25.80;1.00;;;;;;5090928;28;20024;-78
2022/07/20 04:30:16;;;;;;;11.93;10.90;;;25.80;1.00;;;;;;5093473;28;20549;-78
2022/07/20 04:32:42;;;;;;;11.57;10.48;;;25.80;1.00;;;;;;5090549;28;20028;-78
2022/07/20 04:35:09;;;;;;;11.68;10.50;;;25.80;1.00;;;;;;5091132;28;20074;-78
2022/07/20 04:37:35;;;;;;;11.55;10.57;;;25.70;1.00;;;;;;5091312;28;20028;-78
2022/07/20 04:40:05;;;;;;;11.38;10.48;;;25.80;1.00;;;;;;5091168;28;20031;-78
2022/07/20 04:42:31;;;;;;;12.00;10.85;;;25.80;1.00;;;;;;5092082;28;20019;-78
2022/07/20 04:44:57;;;;;;;12.05;10.57;;;25.90;1.00;;;;;;5090528;28;20408;-78
2022/07/20 04:47:23;;;;;;;12.25;10.98;;;25.90;1.00;;;;;;5090764;28;20035;-78
2022/07/20 04:49:48;;;;;;;13.88;11.70;;;25.90;1.00;;;;;;5090934;28;20036;-78
2022/07/20 04:52:14;;;;;;;12.50;10.70;;;25.90;1.00;;;;;;5089524;28;20377;-78
2022/07/20 04:54:41;;;;;;;11.85;10.52;;;26.00;1.00;;;;;;5090988;28;20114;-78
2022/07/20 04:57:07;;;;;;;11.98;10.90;;;26.00;1.00;;;;;;5090693;28;20030;-78
2022/07/20 04:59:32;;;;;;;11.77;10.60;;;26.00;1.00;;;;;;5090773;28;20020;-79
2022/07/20 05:01:58;;;;;;;11.65;10.65;;;26.00;1.00;;;;;;5090731;28;20027;-79
2022/07/20 05:04:23;;;;;;;10.65;9.75;;;26.00;1.00;;;;;;5090495;28;20124;-77
2022/07/20 05:06:49;;;;;;;10.95;9.95;;;26.00;1.00;;;;;;5090714;28;20043;-78
2022/07/20 05:09:15;;;;;;;11.60;10.40;;;26.10;1.00;;;;;;5093053;28;20496;-78
2022/07/20 05:11:40;;;;;;;10.82;9.70;;;26.40;1.00;;;;;;5090106;28;20423;-78
2022/07/20 05:14:08;;;;;;;11.00;9.95;;;26.10;1.00;;;;;;5090319;28;20101;-78
2022/07/20 05:16:34;;;;;;;11.55;10.57;;;26.20;1.00;;;;;;5090500;28;20024;-78
2022/07/20 05:19:00;;;;;;;12.30;11.30;;;26.20;1.00;;;;;;5090588;28;22641;-78
2022/07/20 05:21:26;;;;;;;13.80;12.45;;;26.30;1.00;;;;;;5092386;28;20028;-77
2022/07/20 05:23:51;;;;;;;13.05;11.85;;;26.40;1.00;;;;;;5090823;28;20077;-78
2022/07/20 05:26:17;;;;;;;12.85;11.77;;;26.40;1.00;;;;;;5090199;28;20059;-78
2022/07/20 05:28:43;;;;;;;12.73;11.63;;;26.50;1.00;;;;;;5090365;28;20051;-78
2022/07/20 05:31:09;;;;;;;11.73;10.73;;;26.60;1.00;;;;;;5087819;28;20025;-78
2022/07/20 05:33:37;;;;;;;12.27;10.52;;;26.60;1.00;;;;;;5078288;28;20170;-76
2022/07/20 05:36:03;;;;;;;12.48;11.20;;;26.60;1.00;;;;;;5074730;28;20061;-78
2022/07/20 05:38:30;;;;;;;17.30;13.27;;;26.70;1.00;;;;;;5074866;28;20032;-77
2022/07/20 05:40:55;;;;;;;12.63;10.63;;;26.70;1.00;;;;;;5084503;28;20034;-77
2022/07/20 05:43:22;;;;;;;14.73;11.18;;;26.80;1.00;;;;;;5088637;28;20131;-80
2022/07/20 05:45:47;;;;;;;11.00;10.10;;;26.80;1.00;;;;;;5090467;28;20028;-81
2022/07/20 05:48:14;;;;;;;11.45;10.27;;;26.80;1.00;;;;;;5094813;28;20027;-80
2022/07/20 05:50:41;;;;;;;10.73;9.70;;;26.80;1.00;;;;;;5092673;28;20016;-81
2022/07/20 05:53:08;;;;;;;11.93;10.52;;;26.80;1.00;;;;;;5092300;28;20032;-80
2022/07/20 05:55:34;;;;;;;11.77;10.50;;;26.90;1.00;;;;;;5089857;28;20051;-80
2022/07/20 05:58:01;;;;;;;12.13;11.02;;;26.90;1.00;;;;;;5092563;28;20488;-80
2022/07/20 06:00:27;;;;;;;11.93;10.68;;;26.90;1.00;;;;;;5092244;28;20031;-80
2022/07/20 06:02:52;;;;;;;11.57;10.57;;;27.00;1.00;;;;;;5080988;28;20028;-80
2022/07/20 06:05:18;;;;;;;11.25;10.30;;;27.10;1.00;;;;;;5080679;28;20043;-80
2022/07/20 06:07:44;;;;;;;11.18;9.95;;;27.20;1.00;;;;;;5080816;28;20024;-80
2022/07/20 06:10:10;;;;;;;11.07;9.98;;;27.30;1.00;;;;;;5086622;28;20066;-80
2022/07/20 06:12:36;;;;;;;11.32;9.98;;;27.30;1.00;;;;;;5105850;28;20019;-81
2022/07/20 06:15:01;;;;;;;11.23;9.63;;;27.40;1.00;;;;;;5089480;28;20039;-80
2022/07/20 06:17:38;;;;;;;10.68;9.77;;;27.40;1.00;;;;;;5087935;28;20020;-81
2022/07/20 06:20:07;;;;;;;11.40;10.10;;;27.50;1.00;;;;;;5088881;28;20034;-81
2022/07/20 06:22:34;;;;;;;10.23;9.32;;;27.60;1.00;;;;;;5088603;28;20021;-81
2022/07/20 06:24:59;;;;;;;12.00;9.70;;;27.70;1.00;;;;;;5092724;28;20477;-80
2022/07/20 06:27:25;;;;;;;10.13;9.10;;;27.80;1.00;;;;;;5097969;28;20034;-79
2022/07/20 06:29:51;;;;;;;9.57;8.60;;;27.90;1.00;;;;;;5097679;28;20106;-78
2022/07/20 06:32:16;;;;;;;10.10;9.10;;;28.00;1.00;;;;;;5088612;28;20020;-81
2022/07/20 06:34:42;;;;;;;10.70;9.43;;;28.00;1.00;;;;;;5088882;28;20051;-81
2022/07/20 06:37:08;;;;;;;10.73;9.23;;;28.10;1.00;;;;;;5091537;28;20110;-81
2022/07/20 06:39:33;;;;;;;9.35;8.48;;;28.20;1.00;;;;;;5075354;28;20023;-80
2022/07/20 06:41:59;;;;;;;8.88;8.00;;;28.20;1.00;;;;;;5098293;28;20476;-80
2022/07/20 06:44:25;;;;;;;10.60;9.60;;;28.20;1.00;;;;;;5094054;28;20046;-81
2022/07/20 06:46:50;;;;;;;10.43;8.70;;;28.30;1.00;;;;;;5088548;28;20028;-81
2022/07/20 06:49:16;;;;;;;10.10;8.85;;;28.40;1.00;;;;;;5090443;28;20024;-78
2022/07/20 06:51:41;;;;;;;11.55;9.63;;;28.40;1.00;;;;;;5090757;28;20024;-78
2022/07/20 06:54:07;;;;;;;10.20;9.07;;;28.50;1.00;;;;;;5093101;28;20032;-79
2022/07/20 06:56:33;;;;;;;10.02;8.82;;;28.60;1.00;;;;;;5091848;28;20020;-85
2022/07/20 06:58:58;;;;;;;9.73;8.82;;;28.60;1.00;;;;;;5091800;28;20031;-80
2022/07/20 07:01:24;;;;;;;10.52;9.50;;;28.70;1.00;;;;;;5091891;28;20028;-81
2022/07/20 07:03:50;;;;;;;10.30;9.45;;;28.80;1.00;;;;;;5075119;28;20021;-81
2022/07/20 07:06:16;;;;;;;9.85;8.98;;;28.90;1.00;;;;;;5092563;28;20024;-81
2022/07/20 07:08:42;;;;;;;9.45;8.65;;;28.90;1.00;;;;;;5092507;28;20024;-80
2022/07/20 07:11:07;;;;;;;10.05;9.20;;;29.10;1.00;;;;;;5092511;28;20028;-80
2022/07/20 07:13:33;;;;;;;9.07;8.27;;;29.10;1.00;;;;;;5092497;28;20032;-79
2022/07/20 07:15:59;;;;;;;9.70;8.80;;;29.20;1.00;;;;;;5092493;28;20025;-78
2022/07/20 07:18:25;;;;;;;9.90;8.88;;;29.20;1.00;;;;;;5094911;28;20495;-79
2022/07/20 07:20:50;;;;;;;9.25;8.48;;;29.20;1.00;;;;;;5090454;28;20485;-79
2022/07/20 07:23:16;;;;;;;10.45;9.48;;;29.20;1.00;;;;;;5092436;28;20115;-79
2022/07/20 07:25:41;;;;;;;9.07;8.32;;;29.40;1.00;;;;;;5092441;28;20477;-79
2022/07/20 07:28:07;;;;;;;9.27;8.38;;;29.50;1.00;;;;;;5092299;28;20165;-79
2022/07/20 07:30:33;;;;;;;10.13;9.30;;;29.50;1.00;;;;;;5093587;28;20032;-78
2022/07/20 07:32:59;;;;;;;9.55;8.75;;;29.40;1.00;;;;;;5093130;28;20028;-78
2022/07/20 07:35:24;;;;;;;10.65;8.90;;;29.40;1.00;;;;;;5091700;28;20039;-79
2022/07/20 07:37:50;;;;;;;10.93;8.50;;;29.50;1.00;;;;;;5092005;28;20028;-78
2022/07/20 07:40:15;;;;;;;9.65;8.45;;;29.70;1.00;;;;;;5091658;28;20408;-78
2022/07/20 07:42:41;;;;;;;9.30;8.50;;;29.80;1.00;;;;;;5091743;28;20024;-79
2022/07/20 07:45:08;;;;;;;10.25;8.25;;;29.90;1.00;;;;;;5093630;28;20047;-76
2022/07/20 07:47:34;;;;;;;12.10;9.07;;;29.80;1.00;;;;;;5091924;28;20032;-77
2022/07/20 07:50:00;;;;;;;12.00;9.20;;;29.80;1.00;;;;;;5091365;28;20111;-76
2022/07/20 07:52:26;;;;;;;13.40;8.65;;;30.00;1.00;;;;;;5091789;28;20106;-77
2022/07/20 07:54:51;;;;;;;9.68;8.82;;;30.00;1.00;;;;;;5091431;28;20433;-77
2022/07/20 07:57:17;;;;;;;9.18;8.38;;;29.90;1.00;;;;;;5094138;28;20020;-76
2022/07/20 07:59:43;;;;;;;9.63;8.70;;;29.80;1.00;;;;;;5090191;28;20356;-77
2022/07/20 08:02:09;;;;;;;9.70;9.00;;;29.90;1.00;;;;;;5091379;28;20073;-79
2022/07/20 08:04:34;;;;;;;10.02;9.02;;;29.90;1.00;;;;;;5090987;28;20044;-77
2022/07/20 08:07:00;;;;;;;9.77;8.85;;;30.00;1.00;;;;;;5090698;28;20056;-77
2022/07/20 08:09:26;;;;;;;9.32;8.52;;;30.20;1.00;;;;;;5093768;28;20028;-77
2022/07/20 08:11:52;;;;;;;9.80;8.90;;;30.30;1.00;;;;;;5090407;28;20116;-77
2022/07/20 08:14:18;;;;;;;9.65;8.85;;;30.40;1.00;;;;;;5091347;28;20035;-77
2022/07/20 08:16:44;;;;;;;10.13;9.18;;;30.50;1.00;;;;;;5091187;28;20048;-78
2022/07/20 08:19:10;;;;;;;9.90;9.10;;;30.50;1.00;;;;;;5091106;28;20487;-77
2022/07/20 08:21:35;;;;;;;9.55;8.75;;;30.50;1.00;;;;;;5092015;28;20028;-77
2022/07/20 08:24:05;;;;;;;9.70;9.00;;;30.40;1.00;;;;;;5092529;28;20040;-78
2022/07/20 08:26:31;;;;;;;9.60;8.80;;;30.50;1.00;;;;;;5091162;28;20036;-77
2022/07/20 08:28:57;;;;;;;10.57;9.65;;;30.70;1.00;;;;;;5090995;28;20043;-77
2022/07/20 08:31:23;;;;;;;10.15;9.20;;;30.70;1.00;;;;;;5091141;28;20377;-78
2022/07/20 08:33:48;;;;;;;10.27;9.27;;;30.90;1.00;;;;;;5090863;28;20032;-77
2022/07/20 08:36:14;;;;;;;10.45;9.48;;;30.90;1.00;;;;;;5093195;28;20027;-78
2022/07/20 08:38:40;;;;;;;9.98;9.10;;;31.00;1.00;;;;;;5089500;28;20098;-77
2022/07/20 08:41:07;;;;;;;9.65;8.80;;;31.00;1.00;;;;;;5072648;28;20024;-77
2022/07/20 08:43:33;;;;;;;9.95;8.88;;;31.10;1.00;;;;;;5090775;28;20188;-77
2022/07/20 08:45:59;;;;;;;10.10;8.98;;;31.20;1.00;;;;;;5091030;28;20520;-77
2022/07/20 08:48:26;;;;;;;10.18;9.25;;;31.00;1.00;;;;;;5092883;28;20095;-77
2022/07/20 08:50:53;;;;;;;9.70;8.75;;;31.00;1.00;;;;;;5089295;28;20383;-77
2022/07/20 08:53:19;;;;;;;9.85;9.05;;;31.40;1.00;;;;;;5090744;28;20062;-78
2022/07/20 08:55:45;;;;;;;10.18;9.25;;;31.50;1.00;;;;;;5090846;28;20123;-77
2022/07/20 08:58:11;;;;;;;10.77;9.52;;;31.70;1.00;;;;;;5090982;28;20300;-77
2022/07/20 09:00:38;;;;;;;10.93;9.82;;;31.70;1.00;;;;;;5091673;28;20408;-78
2022/07/20 09:03:05;;;;;;;10.23;9.23;;;31.90;1.00;;;;;;5091910;28;20028;-77
2022/07/20 09:05:34;;;;;;;10.60;9.70;;;32.00;1.00;;;;;;5090512;28;20051;-78
2022/07/20 09:08:01;;;;;;;10.27;9.25;;;32.00;1.00;;;;;;5090559;28;20020;-78
2022/07/20 09:10:26;;;;;;;10.40;9.30;;;32.00;1.00;;;;;;5090452;28;20063;-77
2022/07/20 09:12:57;;;;;;;9.50;8.73;;;32.40;1.00;;;;;;5090734;28;20051;-78
2022/07/20 09:15:31;;;;;;;9.88;9.07;;;32.90;1.00;;;;;;5088291;28;20028;-78
2022/07/20 09:18:17;;;;;;;9.77;8.98;;;33.00;1.00;;;;;;5089345;28;20077;-78
2022/07/20 09:20:52;;;;;;;10.00;9.15;;;33.40;1.00;;;;;;5072107;28;20400;-77
2022/07/20 09:23:33;;;;;;;9.70;8.88;;;33.50;1.00;;;;;;5090331;28;20024;-78
2022/07/20 09:26:12;;;;;;;11.18;9.38;;;33.60;1.00;;;;;;5090252;28;20396;-77
2022/07/20 09:28:40;;;;;;;10.18;9.10;;;33.40;1.00;;;;;;5090115;28;20055;-78
2022/07/20 09:31:14;;;;;;;10.25;9.35;;;33.20;1.00;;;;;;5090212;28;20061;-77
2022/07/20 09:33:48;;;;;;;10.68;9.68;;;33.20;1.00;;;;;;5090848;28;20012;-77
2022/07/20 09:36:15;;;;;;;10.23;9.00;;;33.20;1.00;;;;;;5090946;28;20024;-77
2022/07/20 09:38:41;;;;;;;9.75;8.95;;;33.60;1.00;;;;;;5090170;28;20067;-78
2022/07/20 09:41:27;;;;;;;10.43;9.43;;;33.00;1.00;;;;;;5089876;28;20480;-77
2022/07/20 09:43:54;;;;;;;10.27;9.48;;;32.70;1.00;;;;;;5088682;28;20020;-78
2022/07/20 09:46:29;;;;;;;9.80;9.00;;;32.90;1.00;;;;;;5088785;28;20036;-77
2022/07/20 09:48:58;;;;;;;10.15;9.02;;;33.20;1.00;;;;;;5074261;28;20021;-77
2022/07/20 09:51:29;;;;;;;10.50;9.30;;;33.10;1.00;;;;;;5087819;28;20488;-78
2022/07/20 09:54:16;;;;;;;10.40;9.38;;;33.50;1.00;;;;;;5090550;28;20027;-78
2022/07/20 09:56:46;;;;;;;10.50;9.50;;;34.20;1.00;;;;;;5089699;28;20020;-80
2022/07/20 09:59:13;;;;;;;10.27;9.27;;;34.10;1.00;;;;;;5084319;28;20036;-80
2022/07/20 10:01:42;;;;;;;10.07;9.02;;;34.50;1.00;;;;;;5088437;28;20024;-80
2022/07/20 10:04:10;;;;;;;9.98;9.07;;;34.80;1.00;;;;;;5090289;28;20119;-80
2022/07/20 10:06:39;;;;;;;10.60;9.68;;;34.80;1.00;;;;;;5090743;28;20039;-80
2022/07/20 10:09:07;;;;;;;9.55;8.85;;;34.40;1.00;;;;;;5091047;28;20476;-80
2022/07/20 10:11:33;;;;;;;10.40;9.60;;;34.50;1.00;;;;;;5089005;28;20051;-80
2022/07/20 10:14:03;;;;;;;10.25;9.35;;;34.70;1.00;;;;;;5083026;28;20027;-78
2022/07/20 10:16:52;;;;;;;10.15;9.25;;;34.90;1.00;;;;;;5089542;28;20043;-80
2022/07/20 10:19:21;;;;;;;11.98;9.05;;;34.50;1.00;;;;;;5076961;28;20486;-80
2022/07/20 10:21:48;;;;;;;9.85;8.95;;;34.00;1.00;;;;;;5088788;28;20032;-80
2022/07/20 10:24:14;;;;;;;10.30;9.40;;;34.40;1.00;;;;;;5089949;28;20036;-80
2022/07/20 10:26:40;;;;;;;9.50;8.77;;;34.40;1.00;;;;;;5087565;28;20020;-80
2022/07/20 10:29:05;;;;;;;9.70;8.90;;;34.10;1.00;;;;;;5087731;28;20048;-81
2022/07/20 10:31:54;;;;;;;8.82;8.13;;;34.10;1.00;;;;;;5091461;28;20115;-80
2022/07/20 10:34:39;;;;;;;10.05;8.98;;;34.40;1.00;;;;;;5089600;28;20110;-80
2022/07/20 10:37:29;;;;;;;10.05;9.15;;;34.90;1.00;;;;;;5090037;28;20020;-80
2022/07/20 10:39:57;;;;;;;9.18;8.48;;;35.30;1.00;;;;;;5092324;28;20048;-80
2022/07/20 10:42:31;;;;;;;9.20;8.50;;;35.20;1.00;;;;;;5106608;28;20024;-81
2022/07/20 10:45:15;;;;;;;9.13;8.32;;;35.30;1.00;;;;;;5091691;28;20051;-80
2022/07/20 10:47:43;;;;;;;9.90;8.73;;;34.90;1.00;;;;;;5093116;28;20039;-80
2022/07/20 10:50:20;;;;;;;9.93;8.93;;;35.20;1.00;;;;;;5091215;28;20116;-80
2022/07/20 10:52:48;;;;;;;9.75;8.77;;;35.90;1.00;;;;;;5092614;28;20391;-80
2022/07/20 10:55:36;;;;;;;8.98;8.25;;;35.90;1.00;;;;;;5093048;28;20028;-80
2022/07/20 10:58:11;;;;;;;8.80;8.07;;;36.30;1.00;;;;;;5069616;28;20040;-80
2022/07/20 11:00:40;;;;;;;11.35;8.50;;;36.10;1.00;;;;;;5093579;28;20115;-80
2022/07/20 11:03:15;;;;;;;9.38;7.55;;;36.20;1.00;;;;;;5094882;28;20370;-80
2022/07/20 11:05:42;;;;;;;7.97;7.32;;;36.30;1.00;;;;;;5090596;28;20062;-80
2022/07/20 11:08:09;;;;;;;8.55;7.70;;;36.20;1.00;;;;;;5093530;28;20020;-78
2022/07/20 11:10:36;;;;;;;8.30;7.70;;;35.70;1.00;;;;;;5090970;28;20067;-81
2022/07/20 11:13:04;;;;;;;8.60;7.75;;;35.10;1.00;;;;;;5090383;28;20031;-81
2022/07/20 11:15:40;;;;;;;9.38;8.25;;;35.50;1.00;;;;;;5092298;28;20574;-81
2022/07/20 11:18:08;;;;;;;8.80;7.95;;;35.50;1.00;;;;;;5095800;28;20137;-83
2022/07/20 11:20:34;;;;;;;7.68;7.07;;;36.10;1.00;;;;;;5092867;28;20023;-80
2022/07/20 11:23:03;;;;;;;7.97;7.20;;;36.00;1.00;;;;;;5091350;28;20035;-81
2022/07/20 11:25:55;;;;;;;7.53;6.93;;;35.80;1.00;;;;;;5091438;28;20036;-79
2022/07/20 11:28:27;;;;;;;7.20;6.70;;;36.00;1.00;;;;;;5091140;28;20036;-77
2022/07/20 11:30:54;;;;;;;7.72;7.03;;;35.70;1.00;;;;;;5094165;28;20095;-78
2022/07/20 11:33:33;;;;;;;7.78;7.05;;;35.60;1.00;;;;;;5094541;28;20031;-79
2022/07/20 11:36:03;;;;;;;7.88;7.10;;;36.30;1.00;;;;;;5091530;28;20035;-79
2022/07/20 11:38:44;;;;;;;7.95;7.35;;;36.60;1.00;;;;;;5094501;28;20035;-79
2022/07/20 11:41:18;;;;;;;8.05;7.25;;;36.40;1.00;;;;;;5087886;28;20484;-79
2022/07/20 11:43:44;;;;;;;8.43;7.72;;;36.00;1.00;;;;;;5090560;28;20031;-80
2022/07/20 11:46:17;;;;;;;8.20;7.60;;;36.10;1.00;;;;;;5095808;28;20028;-79
2022/07/20 11:48:44;;;;;;;8.13;7.43;;;36.10;1.00;;;;;;5091422;28;20043;-79
2022/07/20 11:51:11;;;;;;;8.30;7.50;;;37.50;1.00;;;;;;5097251;28;20032;-77
2022/07/20 11:53:41;;;;;;;7.93;7.30;;;40.30;1.00;;;;;;5097109;28;20039;-78
2022/07/20 11:56:22;;;;;;;8.20;7.47;;;41.10;1.00;;;;;;5090943;28;20035;-78
2022/07/20 11:58:50;;;;;;;12.27;6.95;;;41.60;1.00;;;;;;5089351;28;20020;-79
2022/07/20 12:01:22;;;;;;;7.40;6.80;;;41.90;1.00;;;;;;5096016;28;20098;-79
2022/07/20 12:04:01;;;;;;;7.78;6.97;;;42.20;1.00;;;;;;5094248;28;20036;-80
2022/07/20 12:06:29;;;;;;;7.45;6.90;;;42.10;1.00;;;;;;5091725;28;20027;-79
2022/07/20 12:09:10;;;;;;;7.00;6.40;;;41.50;1.00;;;;;;5090836;28;20097;-80
2022/07/20 12:11:56;;;;;;;7.75;7.15;;;43.30;1.00;;;;;;5090717;28;20036;-80
2022/07/20 12:14:32;;;;;;;8.15;6.63;;;42.20;1.00;;;;;;5091087;28;20126;-79
2022/07/20 12:17:10;;;;;;;7.18;6.43;;;43.10;1.00;;;;;;5090633;28;20020;-80
2022/07/20 12:19:37;;;;;;;6.57;6.10;;;42.70;1.00;;;;;;5092490;28;20027;-80
2022/07/20 12:22:03;;;;;;;7.00;6.30;;;42.70;1.00;;;;;;5085013;28;20487;-78
2022/07/20 12:24:51;;;;;;;7.15;6.65;;;43.10;1.00;;;;;;5090468;28;20040;-80
2022/07/20 12:27:18;;;;;;;5.80;5.30;;;43.10;1.00;;;;;;5091256;28;20091;-78
2022/07/20 12:29:44;;;;;;;7.63;5.63;;;42.80;1.00;;;;;;5095143;28;20492;-80
2022/07/20 12:32:10;;;;;;;6.07;5.50;;;42.10;1.00;;;;;;5092012;28;20049;-79
2022/07/20 12:34:52;;;;;;;6.82;6.13;;;42.50;1.00;;;;;;5089625;28;20020;-79
2022/07/20 12:37:20;;;;;;;6.60;6.00;;;39.40;1.00;;;;;;5086943;28;20035;-78
2022/07/20 12:39:53;;;;;;;6.55;5.93;;;40.90;1.00;;;;;;5089256;28;20508;-79
2022/07/20 12:42:24;;;;;;;6.30;5.78;;;41.50;1.00;;;;;;5095540;28;20031;-80
2022/07/20 12:45:05;;;;;;;6.72;5.28;;;41.30;1.00;;;;;;5092901;28;20515;-80
2022/07/20 12:47:31;;;;;;;6.63;5.97;;;42.30;1.00;;;;;;5077187;28;20497;-80
2022/07/20 12:49:57;;;;;;;5.20;4.85;;;40.70;1.00;;;;;;5081945;28;20028;-80
2022/07/20 12:52:23;;;;;;;6.97;4.95;;;41.20;1.00;;;;;;5089184;28;20439;-80
2022/07/20 12:54:49;;;;;;;5.07;4.30;;;42.00;1.00;;;;;;5072135;28;20041;-80
2022/07/20 12:57:19;;;;;;;5.43;4.80;;;39.50;1.00;;;;;;5092422;28;20032;-80